Omskiy-107 — UBWE3 — position and weather

sailwx.info

Track history (hours):
 
Tides and Currents Weather Stations Pressure Air Temp Water Temp Dewpoint Dewpoint Depression Visibility Wind Speed Wind Dir Waves Ship Positions

Omskiy-107

Last reported at 2016-Dec-04 09:33 UTC. Time now 2016-Dec-06 12:17 UTC.
Position N 45°10' E 036°28'.

Length 108 m; draft 3.4 m.

Type: Cargo ship. MMSI: 273343220.

Date/timePositionNaut miles runAvg speedWind from/ knotsBaromVisibWave heightAir tempDewpointWater temp
2016-Dec-04 09:33N 45°10' E 036°28'7 6.8
2016-Dec-04 08:33N 45°17' E 036°29'7 6.8
2016-Dec-04 07:33N 45°21' E 036°37'7 6.8
2016-Dec-04 06:33N 45°27' E 036°41'2 2.4
2016-Dec-04 05:32N 45°29' E 036°40'0 0.0
2016-Dec-04 04:23N 45°29' E 036°40'0 0.0
2016-Dec-04 03:32N 45°29' E 036°40'0 0.0
2016-Dec-04 02:32N 45°29' E 036°40'0 0.0
2016-Dec-04 01:29N 45°29' E 036°40'0 0.0
2016-Dec-04 00:32N 45°29' E 036°40'0 0.0
2016-Dec-03 23:32N 45°29' E 036°40'0 0.0
2016-Dec-03 22:29N 45°29' E 036°40'0 0.0
2016-Dec-03 21:29N 45°29' E 036°40'0 0.0
2016-Dec-03 20:32N 45°29' E 036°40'0 0.0
2016-Dec-03 19:32N 45°29' E 036°40'0 0.0
2016-Dec-03 18:32N 45°29' E 036°40'0 0.0
2016-Dec-03 17:32N 45°29' E 036°40'0 0.0
2016-Dec-03 16:29N 45°29' E 036°40'0 0.0
2016-Dec-03 15:29N 45°29' E 036°40'0 0.0
2016-Dec-03 14:32N 45°29' E 036°40'0 0.0
2016-Dec-03 13:32N 45°29' E 036°40'0 0.0
2016-Dec-03 12:32N 45°29' E 036°40'0 0.0
2016-Dec-03 11:29N 45°29' E 036°40'0 0.0
2016-Dec-03 10:23N 45°29' E 036°40'0 0.0
2016-Dec-03 09:32N 45°29' E 036°40'0 0.0
2016-Dec-03 08:32N 45°29' E 036°39'0 0.0
2016-Dec-03 07:32N 45°29' E 036°39'0 0.0
2016-Dec-03 06:29N 45°29' E 036°39'0 0.0
2016-Dec-03 05:32N 45°29' E 036°39'0 0.0
2016-Dec-03 04:29N 45°29' E 036°39'0 0.0
2016-Dec-03 03:32N 45°29' E 036°39'0 0.0
2016-Dec-03 02:32N 45°29' E 036°39'0 0.0
2016-Dec-03 01:32N 45°29' E 036°39'0 0.1
2016-Dec-03 00:32N 45°29' E 036°39'0 0.0
2016-Dec-02 23:32N 45°29' E 036°39'0 0.0
2016-Dec-02 22:32N 45°29' E 036°39'0 0.0
2016-Dec-02 21:32N 45°29' E 036°39'0 0.0
2016-Dec-02 20:29N 45°29' E 036°39'0 0.0
2016-Dec-02 19:20N 45°29' E 036°39'0 0.0
2016-Dec-02 18:32N 45°29' E 036°39'0 0.0
2016-Dec-02 17:32N 45°29' E 036°39'0 0.0
2016-Dec-02 16:32N 45°29' E 036°39'0 0.0
2016-Dec-02 15:32N 45°29' E 036°39'0 0.0
2016-Dec-02 14:29N 45°29' E 036°39'0 0.0
2016-Dec-02 13:29N 45°29' E 036°39'0 0.0
2016-Dec-02 12:32N 45°29' E 036°39'0 0.0
2016-Dec-02 11:32N 45°29' E 036°39'0 0.0
2016-Dec-02 10:32N 45°29' E 036°39'0 0.0
2016-Dec-02 09:29N 45°29' E 036°39'0 0.0
2016-Dec-02 08:33N 45°29' E 036°39'0 0.1
2016-Dec-02 07:33N 45°29' E 036°39'6 6.0
2016-Dec-02 06:30N 45°34' E 036°45'  
Track history (hours):
 
Tides and Currents Weather Stations Pressure Air Temp Water Temp Dewpoint Dewpoint Depression Visibility Wind Speed Wind Dir Waves Ship Positions

Omskiy-107

Last reported at 2016-Dec-04 09:33 UTC. Time now 2016-Dec-06 12:17 UTC.
Position N 45°10' E 036°28'.

Length 108 m; draft 3.4 m.

Type: Cargo ship. MMSI: 273343220.

Date/timePositionNaut miles runAvg speedWind from/ knotsBaromVisibWave heightAir tempDewpointWater temp
2016-Dec-04 09:33N 45°10' E 036°28'7 6.8
2016-Dec-04 08:33N 45°17' E 036°29'7 6.8
2016-Dec-04 07:33N 45°21' E 036°37'7 6.8
2016-Dec-04 06:33N 45°27' E 036°41'2 2.4
2016-Dec-04 05:32N 45°29' E 036°40'0 0.0
2016-Dec-04 04:23N 45°29' E 036°40'0 0.0
2016-Dec-04 03:32N 45°29' E 036°40'0 0.0
2016-Dec-04 02:32N 45°29' E 036°40'0 0.0
2016-Dec-04 01:29N 45°29' E 036°40'0 0.0
2016-Dec-04 00:32N 45°29' E 036°40'0 0.0
2016-Dec-03 23:32N 45°29' E 036°40'0 0.0
2016-Dec-03 22:29N 45°29' E 036°40'0 0.0
2016-Dec-03 21:29N 45°29' E 036°40'0 0.0
2016-Dec-03 20:32N 45°29' E 036°40'0 0.0
2016-Dec-03 19:32N 45°29' E 036°40'0 0.0
2016-Dec-03 18:32N 45°29' E 036°40'0 0.0
2016-Dec-03 17:32N 45°29' E 036°40'0 0.0
2016-Dec-03 16:29N 45°29' E 036°40'0 0.0
2016-Dec-03 15:29N 45°29' E 036°40'0 0.0
2016-Dec-03 14:32N 45°29' E 036°40'0 0.0
2016-Dec-03 13:32N 45°29' E 036°40'0 0.0
2016-Dec-03 12:32N 45°29' E 036°40'0 0.0
2016-Dec-03 11:29N 45°29' E 036°40'0 0.0
2016-Dec-03 10:23N 45°29' E 036°40'0 0.0
2016-Dec-03 09:32N 45°29' E 036°40'0 0.0
2016-Dec-03 08:32N 45°29' E 036°39'0 0.0
2016-Dec-03 07:32N 45°29' E 036°39'0 0.0
2016-Dec-03 06:29N 45°29' E 036°39'0 0.0
2016-Dec-03 05:32N 45°29' E 036°39'0 0.0
2016-Dec-03 04:29N 45°29' E 036°39'0 0.0
2016-Dec-03 03:32N 45°29' E 036°39'0 0.0
2016-Dec-03 02:32N 45°29' E 036°39'0 0.0
2016-Dec-03 01:32N 45°29' E 036°39'0 0.1
2016-Dec-03 00:32N 45°29' E 036°39'0 0.0
2016-Dec-02 23:32N 45°29' E 036°39'0 0.0
2016-Dec-02 22:32N 45°29' E 036°39'0 0.0
2016-Dec-02 21:32N 45°29' E 036°39'0 0.0
2016-Dec-02 20:29N 45°29' E 036°39'0 0.0
2016-Dec-02 19:20N 45°29' E 036°39'0 0.0
2016-Dec-02 18:32N 45°29' E 036°39'0 0.0
2016-Dec-02 17:32N 45°29' E 036°39'0 0.0
2016-Dec-02 16:32N 45°29' E 036°39'0 0.0
2016-Dec-02 15:32N 45°29' E 036°39'0 0.0
2016-Dec-02 14:29N 45°29' E 036°39'0 0.0
2016-Dec-02 13:29N 45°29' E 036°39'0 0.0
2016-Dec-02 12:32N 45°29' E 036°39'0 0.0
2016-Dec-02 11:32N 45°29' E 036°39'0 0.0
2016-Dec-02 10:32N 45°29' E 036°39'0 0.0
2016-Dec-02 09:29N 45°29' E 036°39'0 0.0
2016-Dec-02 08:33N 45°29' E 036°39'0 0.1
2016-Dec-02 07:33N 45°29' E 036°39'6 6.0
2016-Dec-02 06:30N 45°34' E 036°45'  

Dump ship's entire track history